createdAt,value
2022-08-12T00:03:26.199Z,19.19
2022-08-12T00:08:52.654Z,19.11
2022-08-12T00:14:14.708Z,19.16
2022-08-12T00:19:35.104Z,19.20
2022-08-12T00:24:58.171Z,19.17
2022-08-12T00:30:19.364Z,19.16
2022-08-12T00:35:40.521Z,19.03
2022-08-12T00:41:02.819Z,18.96
2022-08-12T00:46:23.227Z,18.76
2022-08-12T00:51:48.868Z,18.62
2022-08-12T00:56:51.200Z,18.50
2022-08-12T01:02:00.974Z,18.35
2022-08-12T01:07:32.996Z,18.27
2022-08-12T01:12:36.631Z,18.08
2022-08-12T01:17:42.032Z,17.97
2022-08-12T01:23:21.070Z,17.87
2022-08-12T01:28:24.631Z,17.84
2022-08-12T01:33:29.529Z,17.73
2022-08-12T01:38:33.840Z,17.92
2022-08-12T01:43:36.820Z,17.96
2022-08-12T01:49:21.785Z,17.84
2022-08-12T01:54:24.198Z,17.89
2022-08-12T01:59:49.810Z,17.82
2022-08-12T02:05:25.262Z,17.73
2022-08-12T02:11:18.429Z,17.70
2022-08-12T02:16:45.391Z,17.61
2022-08-12T02:21:58.506Z,17.57
2022-08-12T02:27:01.876Z,17.59
2022-08-12T02:32:04.366Z,17.53
2022-08-12T02:37:09.080Z,17.51
2022-08-12T02:42:15.156Z,17.43
2022-08-12T02:47:59.374Z,17.43
2022-08-12T02:52:41.171Z,17.35
2022-08-12T02:57:44.783Z,17.24
2022-08-12T03:02:47.782Z,17.14
2022-08-12T03:07:59.615Z,17.08
2022-08-12T03:13:04.421Z,17.02
2022-08-12T03:18:26.259Z,17.10
2022-08-12T03:23:31.548Z,17.02
2022-08-12T03:28:50.542Z,16.99
2022-08-12T03:34:00.498Z,16.89
2022-08-12T03:39:17.092Z,16.85
2022-08-12T03:45:05.404Z,16.66
2022-08-12T03:50:26.549Z,16.67
2022-08-12T03:55:47.136Z,16.44
2022-08-12T04:00:49.101Z,16.28
2022-08-12T04:05:56.167Z,16.34
2022-08-12T04:11:16.934Z,16.38
2022-08-12T04:16:20.329Z,16.27
2022-08-12T04:21:22.120Z,16.25
2022-08-12T04:26:23.682Z,16.22
2022-08-12T04:31:34.687Z,16.25
2022-08-12T04:36:41.217Z,16.21
2022-08-12T04:41:54.385Z,16.19
2022-08-12T04:47:00.336Z,16.18
2022-08-12T04:52:03.402Z,16.17
2022-08-12T04:57:09.720Z,16.37
2022-08-12T05:02:17.044Z,16.40
2022-08-12T05:07:24.250Z,16.41
2022-08-12T05:12:28.321Z,16.62
2022-08-12T05:17:29.880Z,16.74
2022-08-12T05:22:31.948Z,16.77
2022-08-12T05:27:55.311Z,16.98
2022-08-12T05:33:05.354Z,17.19
2022-08-12T05:38:28.579Z,17.49
2022-08-12T05:43:30.283Z,17.72
2022-08-12T05:48:33.036Z,17.95
2022-08-12T05:53:34.666Z,18.18
2022-08-12T05:58:36.199Z,18.51
2022-08-12T06:03:37.860Z,18.52
2022-08-12T06:08:39.433Z,18.88
2022-08-12T06:13:54.168Z,19.13
2022-08-12T06:18:56.284Z,19.46
2022-08-12T06:23:58.362Z,19.70
2022-08-12T06:29:00.770Z,20.04
2022-08-12T06:35:23.027Z,20.82
2022-08-12T06:39:24.552Z,21.39
2022-08-12T06:44:26.168Z,22.12
2022-08-12T06:49:36.333Z,22.65
2022-08-12T06:54:38.035Z,22.57
2022-08-12T06:59:41.006Z,22.81
2022-08-12T07:04:43.427Z,23.26
2022-08-12T07:10:07.088Z,23.22
2022-08-12T07:15:07.113Z,23.63
2022-08-12T07:20:29.516Z,24.40
2022-08-12T07:25:41.020Z,24.92
2022-08-12T07:30:45.332Z,24.80
2022-08-12T07:35:48.133Z,25.22
2022-08-12T07:40:53.823Z,25.49
2022-08-12T07:45:55.552Z,25.36
2022-08-12T07:50:57.081Z,25.51
2022-08-12T07:55:58.963Z,25.28
2022-08-12T08:01:00.828Z,25.93
2022-08-12T08:06:02.975Z,26.34
2022-08-12T08:11:23.112Z,26.52
2022-08-12T08:16:25.495Z,26.76
2022-08-12T08:21:32.897Z,26.77
2022-08-12T08:26:34.394Z,27.70
2022-08-12T08:31:36.371Z,27.45
2022-08-12T08:36:41.921Z,28.06
2022-08-12T08:42:15.751Z,27.89
2022-08-12T08:47:22.023Z,28.44
2022-08-12T08:52:39.399Z,28.21
2022-08-12T08:57:49.381Z,28.41
2022-08-12T09:08:22.434Z,28.89
2022-08-12T09:13:29.246Z,29.55
2022-08-12T09:18:52.673Z,29.49
2022-08-12T09:24:05.950Z,29.90
2022-08-12T09:29:08.519Z,29.70
2022-08-12T09:34:27.994Z,29.81
2022-08-12T09:40:08.099Z,30.47
2022-08-12T09:45:18.904Z,30.51
2022-08-12T09:50:30.461Z,30.61
2022-08-12T09:56:32.066Z,30.84
2022-08-12T10:01:15.242Z,30.80
2022-08-12T10:06:32.404Z,31.35
2022-08-12T10:12:12.142Z,31.18
2022-08-12T10:17:15.481Z,31.29
2022-08-12T10:22:39.088Z,31.77
2022-08-12T10:28:04.718Z,32.26
2022-08-12T10:33:18.068Z,31.69
2022-08-12T10:38:38.714Z,31.80
2022-08-12T10:43:55.979Z,32.49
2022-08-12T10:49:07.062Z,32.08
2022-08-12T10:54:27.192Z,32.30
2022-08-12T11:00:30.604Z,32.36
2022-08-12T11:07:03.263Z,32.22
2022-08-12T11:10:26.564Z,32.94
2022-08-12T11:16:02.704Z,33.05
2022-08-12T11:20:52.214Z,32.58
2022-08-12T11:25:57.902Z,32.47
2022-08-12T11:31:00.864Z,32.62
2022-08-12T11:36:14.875Z,33.09
2022-08-12T11:41:17.379Z,32.70
2022-08-12T11:46:30.605Z,33.41
2022-08-12T11:51:36.568Z,33.08
2022-08-12T11:56:45.940Z,33.28
2022-08-12T12:02:04.771Z,32.93
2022-08-12T12:07:11.380Z,32.41
2022-08-12T12:12:13.150Z,32.53
2022-08-12T12:17:14.748Z,32.76
2022-08-12T12:22:23.198Z,33.45
2022-08-12T12:28:03.659Z,33.15
2022-08-12T12:32:53.339Z,32.58
2022-08-12T12:38:05.327Z,32.37
2022-08-12T12:43:14.979Z,33.12
2022-08-12T12:48:21.095Z,33.26
2022-08-12T12:54:06.033Z,33.33
2022-08-12T12:58:44.986Z,33.00
2022-08-12T13:03:49.135Z,33.45
2022-08-12T13:08:54.611Z,33.11
2022-08-12T13:14:09.693Z,33.33
2022-08-12T13:19:13.232Z,33.10
2022-08-12T13:24:16.807Z,33.10
2022-08-12T13:29:20.673Z,32.71
2022-08-12T13:34:32.170Z,32.86
2022-08-12T13:39:35.810Z,32.92
2022-08-12T13:44:37.332Z,32.91
2022-08-12T13:49:54.117Z,33.18
2022-08-12T13:54:57.470Z,32.21
2022-08-12T14:00:00.545Z,32.24
2022-08-12T14:05:03.762Z,32.22
2022-08-12T14:10:37.568Z,32.32
2022-08-12T14:15:41.379Z,32.22
2022-08-12T14:20:47.556Z,32.14
2022-08-12T14:25:51.379Z,31.91
2022-08-12T14:31:03.019Z,31.92
2022-08-12T14:36:07.975Z,31.81
2022-08-12T14:41:13.502Z,31.90
2022-08-12T14:46:19.049Z,31.99
2022-08-12T14:52:48.348Z,31.76
2022-08-12T14:57:19.345Z,31.60
2022-08-12T15:02:10.482Z,31.70
2022-08-12T15:07:43.795Z,31.48
2022-08-12T15:12:35.618Z,31.34
2022-08-12T15:17:42.350Z,31.20
2022-08-12T15:22:54.195Z,31.11
2022-08-12T15:28:03.800Z,30.91
2022-08-12T15:33:12.643Z,31.29
2022-08-12T15:38:25.327Z,30.92
2022-08-12T15:44:17.026Z,30.94
2022-08-12T15:48:53.717Z,31.09
2022-08-12T15:54:32.251Z,30.79
2022-08-12T15:59:59.909Z,31.05
2022-08-12T16:05:01.282Z,30.81
2022-08-12T16:10:06.193Z,30.86
2022-08-12T16:15:12.074Z,31.16
2022-08-12T16:20:27.871Z,31.06
2022-08-12T16:26:02.655Z,30.70
2022-08-12T16:31:05.818Z,30.59
2022-08-12T16:36:18.984Z,30.69
2022-08-12T16:41:22.447Z,30.68
2022-08-12T16:46:32.563Z,30.49
2022-08-12T16:51:40.286Z,30.38
2022-08-12T16:56:54.596Z,30.33
2022-08-12T17:01:57.750Z,30.38
2022-08-12T17:07:01.439Z,30.29
2022-08-12T17:12:04.868Z,30.43
2022-08-12T17:17:12.431Z,30.46
2022-08-12T17:22:30.538Z,30.49
2022-08-12T17:27:43.722Z,30.53
2022-08-12T17:32:53.122Z,30.38
2022-08-12T17:38:00.074Z,30.75
2022-08-12T17:43:57.586Z,30.73
2022-08-12T17:48:38.293Z,30.68
2022-08-12T17:54:05.678Z,30.85
2022-08-12T17:59:07.445Z,30.61
2022-08-12T18:04:21.432Z,30.59
2022-08-12T18:09:32.152Z,29.91
2022-08-12T18:14:41.686Z,29.81
2022-08-12T18:20:06.007Z,29.53
2022-08-12T18:26:12.135Z,29.29
2022-08-12T18:30:34.599Z,29.18
2022-08-12T18:35:47.402Z,29.00
2022-08-12T18:41:21.777Z,28.89
2022-08-12T18:46:54.239Z,28.69
2022-08-12T18:52:04.529Z,28.42
2022-08-12T18:57:16.689Z,28.20
2022-08-12T19:02:23.254Z,27.68
2022-08-12T19:07:29.677Z,27.30
2022-08-12T19:13:08.308Z,26.86
2022-08-12T19:18:11.041Z,26.39
2022-08-12T19:23:16.650Z,26.43
2022-08-12T19:28:29.601Z,25.89
2022-08-12T19:33:33.494Z,25.74
2022-08-12T19:38:46.818Z,25.06
2022-08-12T19:44:00.628Z,24.95
2022-08-12T19:49:22.294Z,24.48
2022-08-12T19:54:30.299Z,24.33
2022-08-12T19:59:43.420Z,23.91
2022-08-12T20:06:05.722Z,23.71
2022-08-12T20:10:36.280Z,23.53
2022-08-12T20:15:44.447Z,23.45
2022-08-12T20:20:47.364Z,23.15
2022-08-12T20:25:53.506Z,22.93
2022-08-12T20:31:06.530Z,22.68
2022-08-12T20:36:40.641Z,22.49
2022-08-12T20:41:33.157Z,22.36
2022-08-12T20:46:36.645Z,22.02
2022-08-12T20:51:50.911Z,21.90
2022-08-12T20:56:57.991Z,21.60
2022-08-12T21:02:04.877Z,21.53
2022-08-12T21:07:09.697Z,21.28
2022-08-12T21:12:27.584Z,21.20
2022-08-12T21:17:34.007Z,21.03
2022-08-12T21:22:55.201Z,20.99
2022-08-12T21:27:58.214Z,20.95
2022-08-12T21:33:02.555Z,20.85
2022-08-12T21:38:05.263Z,20.80
2022-08-12T21:43:09.890Z,20.39
2022-08-12T21:48:11.789Z,20.23
2022-08-12T21:53:15.343Z,20.31
2022-08-12T21:58:21.268Z,20.13
2022-08-12T22:04:04.094Z,20.10
2022-08-12T22:09:08.953Z,19.87
2022-08-12T22:14:21.797Z,19.81
2022-08-12T22:19:26.682Z,19.79
2022-08-12T22:24:30.735Z,19.62
2022-08-12T22:29:50.961Z,19.42
2022-08-12T22:35:12.416Z,19.37
2022-08-12T22:40:25.167Z,19.16
2022-08-12T22:45:56.323Z,19.12
2022-08-12T22:51:00.802Z,18.87
2022-08-12T22:56:06.501Z,18.94
2022-08-12T23:01:11.249Z,18.74
2022-08-12T23:06:16.650Z,18.61
2022-08-12T23:11:23.184Z,18.64
2022-08-12T23:16:30.629Z,18.52
2022-08-12T23:22:03.727Z,18.53
2022-08-12T23:27:14.605Z,18.31
2022-08-12T23:32:35.226Z,18.22
2022-08-12T23:37:47.485Z,18.26
2022-08-12T23:42:56.908Z,18.02
2022-08-12T23:48:00.458Z,17.99
2022-08-12T23:53:06.617Z,17.86
2022-08-12T23:58:22.781Z,17.71
